METAR Data
IDs: Format: Raw Decoded Include TAF

Data at: 2135 UTC 10 May 2021

KLMO 102115Z AUTO 35016G22KT 10SM -DZ OVC012 05/02 A3006 RMK AO2 T00480020
KLMO 102055Z AUTO 35012G20KT 10SM OVC010 05/02 A3006 RMK AO2 P0001 T00520022
KLMO 102035Z AUTO 34014G20KT 10SM BKN010 BKN018 OVC050 06/03 A3006 RMK AO2 P0001 T00590028
KLMO 102015Z AUTO 35015KT 10SM BKN025 OVC050 07/04 A3005 RMK AO2 P0001 T00720043
KLMO 101955Z AUTO 35010KT 10SM OVC025 07/04 A3005 RMK AO2 T00730044
KLMO 101935Z AUTO 36011KT 10SM OVC025 07/04 A3005 RMK AO2 T00700040
KLMO 101915Z AUTO 36009KT 7SM OVC025 07/04 A3006 RMK AO2 T00710041
KLMO 101855Z AUTO 36010KT 7SM -DZ SCT019 OVC025 08/04 A3005 RMK AO2 T00750042
KLMO 101835Z AUTO 36007KT 10SM -DZ SCT017 BKN021 OVC028 08/04 A3006 RMK AO2 T00790044
KLMO 101815Z AUTO 01004KT 10SM SCT018 OVC030 08/04 A3006 RMK AO2 T00840043
KLMO 101755Z AUTO 02006KT 7SM SCT018 OVC030 09/04 A3005 RMK AO2 T00850044
KLMO 101735Z AUTO 35006KT 7SM -RA SCT013 SCT017 OVC028 09/05 A3006 RMK AO2 T00860051
KLMO 101715Z AUTO 36004KT 5SM -RA SCT012 SCT021 OVC027 08/05 A3006 RMK AO2 T00790050
KLMO 101655Z AUTO 35004KT 5SM -DZ SCT012 OVC019 07/05 A3006 RMK AO2 T00720046
KLMO 101635Z AUTO 35006KT 4SM -DZ OVC015 07/04 A3006 RMK AO2 T00680042
KLMO 101615Z AUTO 34003KT 5SM RA OVC013 07/04 A3006 RMK AO2 T00700044
KLMO 101555Z AUTO 33003KT 5SM DZ OVC011 07/04 A3006 RMK AO2 P0001 T00690042
KLMO 101535Z AUTO 35003KT 5SM -RA OVC013 07/04 A3006 RMK AO2 P0001 T00670041
KLMO 101515Z AUTO 33005KT 7SM RA OVC013 07/04 A3007 RMK AO2 P0001 T00670040
KLMO 101455Z AUTO 34007KT 10SM -DZ BKN013 BKN021 OVC026 07/04 A3007 RMK AO2 T00650036
KLMO 101435Z AUTO 35006KT 10SM SCT011 BKN017 OVC028 07/04 A3007 RMK AO2 T00650036
KLMO 101415Z AUTO 36007KT 10SM SCT011 BKN030 OVC036 07/04 A3007 RMK AO2 T00650038
KLMO 101355Z AUTO 35007KT 10SM OVC032 06/04 A3007 RMK AO2 T00610035
KLMO 101335Z AUTO 35010KT 10SM OVC030 06/03 A3007 RMK AO2 T00580032
KLMO 101315Z AUTO 36011KT 10SM SCT013 OVC028 06/03 A3007 RMK AO2 T00600033
KLMO 101255Z AUTO 36008KT 10SM BKN013 OVC031 06/04 A3007 RMK AO2 T00590035
KLMO 101235Z AUTO 34006KT 7SM SCT015 OVC029 06/04 A3008 RMK AO2 T00600036
KLMO 101215Z AUTO 35007KT 7SM SCT021 OVC029 06/04 A3008 RMK AO2 T00580035
KLMO 101155Z AUTO 35008KT 7SM BKN023 OVC029 06/04 A3007 RMK AO2 T00600036
KLMO 101135Z AUTO 36008KT 7SM OVC021 06/04 A3007 RMK AO2 T00570035
KLMO 101115Z AUTO 01006KT 7SM -DZ BKN021 OVC027 06/04 A3007 RMK AO2 T00580036
KLMO 101055Z AUTO 02005KT 7SM DZ OVC027 06/04 A3008 RMK AO2 T00600037
KLMO 101035Z AUTO 36006KT 7SM -DZ BKN027 OVC037 06/04 A3009 RMK AO2 T00580036
KLMO 101015Z AUTO 35006KT 7SM -DZ OVC027 06/04 A3008 RMK AO2 T00590037
KLMO 100955Z AUTO 35007KT 10SM -DZ BKN027 OVC031 06/04 A3008 RMK AO2 T00590037
KLMO 100935Z AUTO 35008KT 10SM -DZ BKN027 BKN032 OVC055 06/04 A3009 RMK AO2 T00600039
KLMO 100915Z AUTO 36009KT 10SM -DZ BKN031 OVC055 06/04 A3009 RMK AO2 T00620040
KLMO 100855Z AUTO 36009KT 10SM -DZ BKN031 BKN039 OVC065 07/04 A3009 RMK AO2 T00660042
KLMO 100835Z AUTO 01006KT 7SM RA BKN037 OVC065 07/05 A3009 RMK AO2 T00710048
KLMO 100815Z AUTO 02005KT 7SM -RA SCT030 SCT039 OVC075 07/05 A3009 RMK AO2 T00740051
KLMO 100755Z AUTO 02004KT 7SM -DZ BKN030 BKN034 OVC075 08/05 A3010 RMK AO2 P0001 T00750052
KLMO 100735Z AUTO 02004KT 7SM -RA BKN028 OVC034 08/05 A3010 RMK AO2 P0001 T00750053
KLMO 100715Z AUTO 02004KT 7SM -RA OVC028 08/05 A3011 RMK AO2 T00750052
KLMO 100655Z AUTO 02003KT 7SM -RA BKN030 BKN039 OVC049 08/06 A3011 RMK AO2 P0001 T00770055
KLMO 100635Z AUTO 03003KT 10SM DZ SCT032 BKN039 OVC047 08/06 A3011 RMK AO2 T00770055
KLMO 100615Z AUTO 00000KT 10SM SCT037 OVC043 08/06 A3011 RMK AO2 T00760055
KLMO 100555Z AUTO 00000KT 10SM BKN038 OVC100 08/06 A3010 RMK AO2 T00750055
KLMO 100535Z AUTO 00000KT 10SM SCT032 SCT038 BKN100 07/05 A3010 RMK AO2 T00740051
KLMO 100515Z AUTO 00000KT 10SM SCT100 08/05 A3011 RMK AO2 T00750051
KLMO 100455Z AUTO 00000KT 10SM OVC100 08/05 A3011 RMK AO2 T00760050
KLMO 100435Z AUTO 00000KT 10SM SCT075 SCT085 OVC110 08/05 A3011 RMK AO2 T00800050
KLMO 100415Z AUTO 00000KT 10SM OVC085 08/05 A3011 RMK AO2 T00800051
KLMO 100355Z AUTO 00000KT 10SM SCT041 OVC085 08/05 A3011 RMK AO2 T00800051
KLMO 100335Z AUTO 00000KT 10SM SCT075 OVC085 08/05 A3011 RMK AO2 T00800050
KLMO 100315Z AUTO 00000KT 10SM OVC080 08/05 A3010 RMK AO2 T00800053
KLMO 100255Z AUTO 00000KT 10SM SCT025 SCT060 OVC080 08/06 A3010 RMK AO2 T00800055
KLMO 100235Z AUTO 00000KT 10SM -RA SCT025 BKN060 OVC070 08/05 A3010 RMK AO2 T00790053
KLMO 100215Z AUTO 00000KT 10SM -RA BKN047 BKN060 OVC070 08/05 A3009 RMK AO2 T00790054
KLMO 100155Z AUTO 00000KT 7SM DZ BKN047 OVC055 08/05 A3009 RMK AO2 P0002 T00790051
KLMO 100135Z AUTO 21005KT 7SM RA SCT026 BKN039 OVC055 08/05 A3009 RMK AO2 P0002 T00800050
KLMO 100115Z AUTO 20007KT 5SM RA OVC028 08/05 A3008 RMK AO2 P0002 T00830047
KLMO 100055Z AUTO 00000KT 7SM RA SCT030 OVC036 10/03 A3008 RMK AO2 T00960032
KLMO 100035Z AUTO 17003KT 10SM BKN036 OVC049 10/02 A3007 RMK AO2 T01000024
KLMO 100015Z AUTO 18005KT 10SM SCT029 BKN049 OVC055 10/03 A3007 RMK AO2 T01010025
KLMO 092355Z AUTO 15006KT 10SM SCT030 BKN046 OVC055 10/03 A3006 RMK AO2 T01030028
KLMO 092335Z AUTO 15008KT 10SM SCT030 BKN039 OVC047 11/02 A3006 RMK AO2 T01050024
KLMO 092315Z AUTO 14007KT 10SM SCT034 OVC043 11/02 A3006 RMK AO2 T01070017
KLMO 092255Z AUTO 14008KT 10SM SCT032 SCT038 OVC045 11/01 A3006 RMK AO2 T01090014
KLMO 092235Z AUTO 15007KT 10SM BKN045 BKN050 11/01 A3006 RMK AO2 T01100011
KLMO 092215Z AUTO 15008KT 130V200 10SM BKN045 BKN050 11/01 A3005 RMK AO2 T01110012
KLMO 092155Z AUTO 12008KT 10SM SCT036 OVC043 11/02 A3006 RMK AO2 T01060015
KLMO 092135Z AUTO 14005KT 10SM SCT038 OVC044 11/01 A3006 RMK AO2 T01050012
KLMO 092115Z AUTO 13005KT 100V170 10SM BKN037 OVC044 11/02 A3006 RMK AO2 T01050015
KLMO 092055Z AUTO 13008KT 10SM BKN037 BKN043 OVC050 11/01 A3006 RMK AO2 T01070013
KLMO 092035Z AUTO 12009G14KT 10SM SCT037 BKN043 OVC050 11/01 A3006 RMK AO2 T01100010
KLMO 092015Z AUTO 16009KT 10SM SCT039 BKN048 12/01 A3006 RMK AO2 T01160006
KLMO 091955Z AUTO 13008G14KT 10SM SCT041 BKN050 12/01 A3006 RMK AO2 T01200008
KLMO 091935Z AUTO 12009KT 10SM SCT050 12/00 A3007 RMK AO2 T01210003
KLMO 091915Z AUTO 15007G16KT 10SM SCT043 BKN050 12/00 A3007 RMK AO2 T01200004
KLMO 091855Z AUTO 13007G16KT 10SM SCT041 BKN047 12/M01 A3008 RMK AO2 T01151007
KLMO 091835Z AUTO 12007KT 10SM SCT041 BKN047 12/00 A3008 RMK AO2 T01151002
KLMO 091815Z AUTO 11008KT 10SM SCT041 SCT047 12/01 A3009 RMK AO2 T01200007
KLMO 091755Z AUTO 11007KT 10SM SCT041 SCT120 12/00 A3010 RMK AO2 T01160003
KLMO 091735Z AUTO 17007KT 120V180 10SM SCT039 SCT120 11/M01 A3010 RMK AO2 T01131009
KLMO 091715Z AUTO 12005KT 10SM BKN039 11/00 A3011 RMK AO2 T01120002
KLMO 091655Z AUTO 11007KT 10SM BKN039 BKN046 10/00 A3011 RMK AO2 T01041002
KLMO 091635Z AUTO 14005KT 10SM SCT039 BKN046 10/00 A3011 RMK AO2 T01011002
KLMO 091615Z AUTO 15008KT 110V190 10SM SCT034 BKN046 10/M01 A3012 RMK AO2 T01021007
KLMO 091555Z AUTO 15005KT 10SM SCT044 10/00 A3012 RMK AO2 T01030001
KLMO 091535Z AUTO 16006KT 10SM SCT027 SCT042 10/00 A3012 RMK AO2 T00960001
KLMO 091515Z AUTO 14008KT 120V190 10SM SCT027 SCT042 09/01 A3013 RMK AO2 T00910011
KLMO 091455Z AUTO 16005KT 10SM SCT042 08/02 A3012 RMK AO2 T00830017
KLMO 091435Z AUTO 19005KT 10SM CLR 09/02 A3012 RMK AO2 T00860021
KLMO 091415Z AUTO 19005KT 10SM CLR 08/02 A3012 RMK AO2 T00760018
KLMO 091355Z AUTO 19005KT 10SM CLR 08/03 A3013 RMK AO2 T00750028
KLMO 091335Z AUTO 20004KT 10SM CLR 06/02 A3013 RMK AO2 T00610024
KLMO 091315Z AUTO 21004KT 10SM SCT050 06/02 A3012 RMK AO2 T00600022
KLMO 091255Z AUTO 21004KT 10SM SCT048 BKN085 06/03 A3012 RMK AO2 T00600025
KLMO 091235Z AUTO 21003KT 10SM OVC050 06/03 A3011 RMK AO2 T00600025
KLMO 091215Z AUTO 22003KT 10SM OVC050 06/03 A3011 RMK AO2 T00600025
KLMO 091155Z AUTO 21003KT 10SM OVC048 06/02 A3011 RMK AO2 T00600021
KLMO 091135Z AUTO 00000KT 10SM SCT027 OVC050 06/02 A3011 RMK AO2 T00600021
KLMO 091115Z AUTO 00000KT 10SM BKN025 BKN041 OVC048 06/02 A3011 RMK AO2 T00600021
KLMO 091055Z AUTO 18003KT 10SM SCT025 OVC039 06/02 A3010 RMK AO2 T00600020
KLMO 091035Z AUTO 00000KT 10SM OVC039 06/01 A3010 RMK AO2 T00640011
KLMO 091015Z AUTO 00000KT 10SM SCT032 OVC039 06/02 A3010 RMK AO2 T00610015
KLMO 090955Z AUTO 00000KT 10SM BKN029 OVC036 06/01 A3010 RMK AO2 T00610014